sensor_id;sensor_type;location;lat;lon;timestamp;temperature;humidity
17080;DHT22;8655;57.106;-2.088;2023-06-22T00:00:55;23.00;59.80
17080;DHT22;8655;57.106;-2.088;2023-06-22T00:03:23;23.10;59.90
17080;DHT22;8655;57.106;-2.088;2023-06-22T00:05:50;23.10;59.90
17080;DHT22;8655;57.106;-2.088;2023-06-22T00:08:17;23.10;59.80
17080;DHT22;8655;57.106;-2.088;2023-06-22T00:10:44;23.00;59.80
17080;DHT22;8655;57.106;-2.088;2023-06-22T00:13:10;23.00;59.80
17080;DHT22;8655;57.106;-2.088;2023-06-22T00:15:38;23.10;59.90
17080;DHT22;8655;57.106;-2.088;2023-06-22T00:18:08;23.00;59.80
17080;DHT22;8655;57.106;-2.088;2023-06-22T00:20:34;23.10;59.80
17080;DHT22;8655;57.106;-2.088;2023-06-22T00:23:03;23.00;59.80
17080;DHT22;8655;57.106;-2.088;2023-06-22T00:25:39;23.00;59.80
17080;DHT22;8655;57.106;-2.088;2023-06-22T00:28:05;23.00;59.70
17080;DHT22;8655;57.106;-2.088;2023-06-22T00:30:32;23.00;59.80
17080;DHT22;8655;57.106;-2.088;2023-06-22T00:32:58;23.00;59.70
17080;DHT22;8655;57.106;-2.088;2023-06-22T00:35:24;23.00;59.70
17080;DHT22;8655;57.106;-2.088;2023-06-22T00:37:55;23.00;59.80
17080;DHT22;8655;57.106;-2.088;2023-06-22T00:40:26;23.00;59.80
17080;DHT22;8655;57.106;-2.088;2023-06-22T00:42:53;23.00;59.70
17080;DHT22;8655;57.106;-2.088;2023-06-22T00:45:18;23.00;59.70
17080;DHT22;8655;57.106;-2.088;2023-06-22T00:47:44;23.00;59.70
17080;DHT22;8655;57.106;-2.088;2023-06-22T00:50:17;23.00;59.70
17080;DHT22;8655;57.106;-2.088;2023-06-22T00:52:44;23.00;59.70
17080;DHT22;8655;57.106;-2.088;2023-06-22T00:55:11;23.00;59.70
17080;DHT22;8655;57.106;-2.088;2023-06-22T00:57:37;23.00;59.70
17080;DHT22;8655;57.106;-2.088;2023-06-22T01:00:03;23.00;59.70
17080;DHT22;8655;57.106;-2.088;2023-06-22T01:02:34;23.00;59.70
17080;DHT22;8655;57.106;-2.088;2023-06-22T01:04:59;23.00;59.70
17080;DHT22;8655;57.106;-2.088;2023-06-22T01:07:31;23.00;59.70
17080;DHT22;8655;57.106;-2.088;2023-06-22T01:12:51;23.00;59.70
17080;DHT22;8655;57.106;-2.088;2023-06-22T01:15:29;23.00;59.70
17080;DHT22;8655;57.106;-2.088;2023-06-22T01:17:57;23.00;59.70
17080;DHT22;8655;57.106;-2.088;2023-06-22T01:20:25;23.00;59.70
17080;DHT22;8655;57.106;-2.088;2023-06-22T01:23:17;23.00;59.70
17080;DHT22;8655;57.106;-2.088;2023-06-22T01:28:49;23.00;59.70
17080;DHT22;8655;57.106;-2.088;2023-06-22T01:31:26;22.90;59.60
17080;DHT22;8655;57.106;-2.088;2023-06-22T01:33:57;23.00;59.70
17080;DHT22;8655;57.106;-2.088;2023-06-22T01:36:25;23.00;59.70
17080;DHT22;8655;57.106;-2.088;2023-06-22T01:38:52;23.00;59.70
17080;DHT22;8655;57.106;-2.088;2023-06-22T01:41:20;23.00;59.70
17080;DHT22;8655;57.106;-2.088;2023-06-22T01:43:47;22.90;59.60
17080;DHT22;8655;57.106;-2.088;2023-06-22T01:46:13;23.00;59.70
17080;DHT22;8655;57.106;-2.088;2023-06-22T01:48:40;22.90;59.60
17080;DHT22;8655;57.106;-2.088;2023-06-22T01:51:06;22.90;59.50
17080;DHT22;8655;57.106;-2.088;2023-06-22T01:53:32;22.90;59.60
17080;DHT22;8655;57.106;-2.088;2023-06-22T01:55:58;22.90;59.60
17080;DHT22;8655;57.106;-2.088;2023-06-22T01:58:27;22.90;59.60
17080;DHT22;8655;57.106;-2.088;2023-06-22T02:01:12;22.90;59.50
17080;DHT22;8655;57.106;-2.088;2023-06-22T02:03:52;22.90;59.50
17080;DHT22;8655;57.106;-2.088;2023-06-22T02:06:33;22.90;59.60
17080;DHT22;8655;57.106;-2.088;2023-06-22T02:09:04;22.90;59.50
17080;DHT22;8655;57.106;-2.088;2023-06-22T02:11:31;22.90;59.50
17080;DHT22;8655;57.106;-2.088;2023-06-22T02:13:58;22.90;59.50
17080;DHT22;8655;57.106;-2.088;2023-06-22T02:16:25;22.90;59.50
17080;DHT22;8655;57.106;-2.088;2023-06-22T02:18:55;22.90;59.50
17080;DHT22;8655;57.106;-2.088;2023-06-22T02:21:23;22.90;59.50
17080;DHT22;8655;57.106;-2.088;2023-06-22T02:23:49;22.90;59.50
17080;DHT22;8655;57.106;-2.088;2023-06-22T02:26:16;22.90;59.50
17080;DHT22;8655;57.106;-2.088;2023-06-22T02:28:42;22.90;60.10
17080;DHT22;8655;57.106;-2.088;2023-06-22T02:31:08;22.90;59.50
17080;DHT22;8655;57.106;-2.088;2023-06-22T02:33:34;22.90;59.50
17080;DHT22;8655;57.106;-2.088;2023-06-22T02:36:00;22.90;59.50
17080;DHT22;8655;57.106;-2.088;2023-06-22T02:38:31;22.90;59.50
17080;DHT22;8655;57.106;-2.088;2023-06-22T02:40:59;22.90;59.50
17080;DHT22;8655;57.106;-2.088;2023-06-22T02:43:25;22.90;59.50
17080;DHT22;8655;57.106;-2.088;2023-06-22T02:45:51;22.90;59.50
17080;DHT22;8655;57.106;-2.088;2023-06-22T02:48:16;22.90;59.50
17080;DHT22;8655;57.106;-2.088;2023-06-22T02:50:42;22.90;59.50
17080;DHT22;8655;57.106;-2.088;2023-06-22T02:53:08;22.90;59.50
17080;DHT22;8655;57.106;-2.088;2023-06-22T02:55:33;22.80;59.40
17080;DHT22;8655;57.106;-2.088;2023-06-22T02:57:59;22.80;59.40
17080;DHT22;8655;57.106;-2.088;2023-06-22T03:00:25;22.80;59.40
17080;DHT22;8655;57.106;-2.088;2023-06-22T03:02:56;22.80;59.40
17080;DHT22;8655;57.106;-2.088;2023-06-22T03:05:23;22.80;59.40
17080;DHT22;8655;57.106;-2.088;2023-06-22T03:07:49;22.80;59.40
17080;DHT22;8655;57.106;-2.088;2023-06-22T03:10:15;22.80;59.40
17080;DHT22;8655;57.106;-2.088;2023-06-22T03:12:42;22.80;59.40
17080;DHT22;8655;57.106;-2.088;2023-06-22T03:15:10;22.80;59.40
17080;DHT22;8655;57.106;-2.088;2023-06-22T03:17:36;22.80;59.40
17080;DHT22;8655;57.106;-2.088;2023-06-22T03:20:03;22.80;59.40
17080;DHT22;8655;57.106;-2.088;2023-06-22T03:22:37;22.80;59.40
17080;DHT22;8655;57.106;-2.088;2023-06-22T03:25:02;22.80;59.40
17080;DHT22;8655;57.106;-2.088;2023-06-22T03:27:28;22.80;59.40
17080;DHT22;8655;57.106;-2.088;2023-06-22T03:29:54;22.80;59.40
17080;DHT22;8655;57.106;-2.088;2023-06-22T03:32:19;22.80;59.40
17080;DHT22;8655;57.106;-2.088;2023-06-22T03:34:45;22.80;59.40
17080;DHT22;8655;57.106;-2.088;2023-06-22T03:37:14;22.80;59.40
17080;DHT22;8655;57.106;-2.088;2023-06-22T03:39:41;22.80;59.40
17080;DHT22;8655;57.106;-2.088;2023-06-22T03:42:06;22.80;59.30
17080;DHT22;8655;57.106;-2.088;2023-06-22T03:44:32;22.80;59.40
17080;DHT22;8655;57.106;-2.088;2023-06-22T03:46:58;22.80;59.40
17080;DHT22;8655;57.106;-2.088;2023-06-22T03:49:24;22.80;59.40
17080;DHT22;8655;57.106;-2.088;2023-06-22T03:51:49;22.70;59.30
17080;DHT22;8655;57.106;-2.088;2023-06-22T03:54:15;22.80;59.30
17080;DHT22;8655;57.106;-2.088;2023-06-22T03:56:41;22.80;59.30
17080;DHT22;8655;57.106;-2.088;2023-06-22T03:59:06;22.80;59.30
17080;DHT22;8655;57.106;-2.088;2023-06-22T04:01:32;22.70;59.30
17080;DHT22;8655;57.106;-2.088;2023-06-22T04:03:58;22.70;59.30
17080;DHT22;8655;57.106;-2.088;2023-06-22T04:06:23;22.70;59.30
17080;DHT22;8655;57.106;-2.088;2023-06-22T04:08:49;22.70;59.30
17080;DHT22;8655;57.106;-2.088;2023-06-22T04:11:17;22.70;59.30
17080;DHT22;8655;57.106;-2.088;2023-06-22T04:13:43;22.70;59.30
17080;DHT22;8655;57.106;-2.088;2023-06-22T04:16:09;22.70;59.30
17080;DHT22;8655;57.106;-2.088;2023-06-22T04:18:35;22.70;59.30
17080;DHT22;8655;57.106;-2.088;2023-06-22T04:21:01;22.70;59.30
17080;DHT22;8655;57.106;-2.088;2023-06-22T04:23:27;22.70;59.30
17080;DHT22;8655;57.106;-2.088;2023-06-22T04:25:53;22.70;59.30
17080;DHT22;8655;57.106;-2.088;2023-06-22T04:28:18;22.70;59.30
17080;DHT22;8655;57.106;-2.088;2023-06-22T04:30:44;22.70;59.30
17080;DHT22;8655;57.106;-2.088;2023-06-22T04:33:14;22.70;59.80
17080;DHT22;8655;57.106;-2.088;2023-06-22T04:35:40;22.70;59.30
17080;DHT22;8655;57.106;-2.088;2023-06-22T04:38:08;22.70;59.30
17080;DHT22;8655;57.106;-2.088;2023-06-22T04:40:34;22.70;59.20
17080;DHT22;8655;57.106;-2.088;2023-06-22T04:42:59;22.70;59.30
17080;DHT22;8655;57.106;-2.088;2023-06-22T04:45:28;22.70;59.30
17080;DHT22;8655;57.106;-2.088;2023-06-22T04:47:54;22.70;59.20
17080;DHT22;8655;57.106;-2.088;2023-06-22T04:50:20;22.70;59.20
17080;DHT22;8655;57.106;-2.088;2023-06-22T04:52:47;22.70;59.20
17080;DHT22;8655;57.106;-2.088;2023-06-22T04:55:14;22.70;59.30
17080;DHT22;8655;57.106;-2.088;2023-06-22T04:57:44;22.60;59.20
17080;DHT22;8655;57.106;-2.088;2023-06-22T05:00:18;22.70;59.20
17080;DHT22;8655;57.106;-2.088;2023-06-22T05:02:48;22.60;59.10
17080;DHT22;8655;57.106;-2.088;2023-06-22T05:05:14;22.60;59.10
17080;DHT22;8655;57.106;-2.088;2023-06-22T05:07:45;22.60;59.10
17080;DHT22;8655;57.106;-2.088;2023-06-22T05:10:13;22.60;59.20
17080;DHT22;8655;57.106;-2.088;2023-06-22T05:12:40;22.60;59.10
17080;DHT22;8655;57.106;-2.088;2023-06-22T05:15:07;22.60;59.10
17080;DHT22;8655;57.106;-2.088;2023-06-22T05:17:33;22.60;59.10
17080;DHT22;8655;57.106;-2.088;2023-06-22T05:19:59;22.60;59.10
17080;DHT22;8655;57.106;-2.088;2023-06-22T05:22:25;22.60;59.10
17080;DHT22;8655;57.106;-2.088;2023-06-22T05:24:51;22.60;59.10
17080;DHT22;8655;57.106;-2.088;2023-06-22T05:27:17;22.60;59.20
17080;DHT22;8655;57.106;-2.088;2023-06-22T05:29:42;22.60;59.10
17080;DHT22;8655;57.106;-2.088;2023-06-22T05:32:08;22.60;59.10
17080;DHT22;8655;57.106;-2.088;2023-06-22T05:34:34;22.60;59.10
17080;DHT22;8655;57.106;-2.088;2023-06-22T05:37:00;22.60;59.10
17080;DHT22;8655;57.106;-2.088;2023-06-22T05:39:26;22.60;59.10
17080;DHT22;8655;57.106;-2.088;2023-06-22T05:41:51;22.60;59.10
17080;DHT22;8655;57.106;-2.088;2023-06-22T05:44:18;22.60;59.10
17080;DHT22;8655;57.106;-2.088;2023-06-22T05:46:44;22.60;59.40
17080;DHT22;8655;57.106;-2.088;2023-06-22T05:49:12;22.60;59.10
17080;DHT22;8655;57.106;-2.088;2023-06-22T05:51:38;22.60;59.10
17080;DHT22;8655;57.106;-2.088;2023-06-22T05:54:04;22.60;59.10
17080;DHT22;8655;57.106;-2.088;2023-06-22T05:56:30;22.60;59.10
17080;DHT22;8655;57.106;-2.088;2023-06-22T05:58:56;22.60;59.10
17080;DHT22;8655;57.106;-2.088;2023-06-22T06:01:22;22.50;59.00
17080;DHT22;8655;57.106;-2.088;2023-06-22T06:03:47;22.60;59.10
17080;DHT22;8655;57.106;-2.088;2023-06-22T06:06:15;22.60;59.10
17080;DHT22;8655;57.106;-2.088;2023-06-22T06:08:41;22.50;59.00
17080;DHT22;8655;57.106;-2.088;2023-06-22T06:11:06;22.50;59.00
17080;DHT22;8655;57.106;-2.088;2023-06-22T06:13:32;22.50;59.00
17080;DHT22;8655;57.106;-2.088;2023-06-22T06:15:58;22.50;59.00
17080;DHT22;8655;57.106;-2.088;2023-06-22T06:18:26;22.50;59.00
17080;DHT22;8655;57.106;-2.088;2023-06-22T06:20:51;22.50;59.00
17080;DHT22;8655;57.106;-2.088;2023-06-22T06:23:17;22.50;59.00
17080;DHT22;8655;57.106;-2.088;2023-06-22T06:25:42;22.50;59.00
17080;DHT22;8655;57.106;-2.088;2023-06-22T06:28:09;22.50;59.00
17080;DHT22;8655;57.106;-2.088;2023-06-22T06:30:35;22.50;59.00
17080;DHT22;8655;57.106;-2.088;2023-06-22T06:33:02;22.50;59.00
17080;DHT22;8655;57.106;-2.088;2023-06-22T06:35:30;22.50;59.00
17080;DHT22;8655;57.106;-2.088;2023-06-22T06:37:55;22.50;59.00
17080;DHT22;8655;57.106;-2.088;2023-06-22T06:40:22;22.50;59.00
17080;DHT22;8655;57.106;-2.088;2023-06-22T06:42:48;22.50;59.00
17080;DHT22;8655;57.106;-2.088;2023-06-22T06:45:19;22.50;59.00
17080;DHT22;8655;57.106;-2.088;2023-06-22T06:47:45;22.50;59.00
17080;DHT22;8655;57.106;-2.088;2023-06-22T06:50:11;22.50;59.00
17080;DHT22;8655;57.106;-2.088;2023-06-22T06:52:37;22.50;59.00
17080;DHT22;8655;57.106;-2.088;2023-06-22T06:55:04;22.50;59.00
17080;DHT22;8655;57.106;-2.088;2023-06-22T06:57:33;22.50;59.00
17080;DHT22;8655;57.106;-2.088;2023-06-22T06:59:59;22.50;59.00
17080;DHT22;8655;57.106;-2.088;2023-06-22T07:02:26;22.50;59.00
17080;DHT22;8655;57.106;-2.088;2023-06-22T07:04:53;22.50;59.00
17080;DHT22;8655;57.106;-2.088;2023-06-22T07:07:21;22.50;59.00
17080;DHT22;8655;57.106;-2.088;2023-06-22T07:09:46;22.50;59.00
17080;DHT22;8655;57.106;-2.088;2023-06-22T07:12:12;22.50;59.00
17080;DHT22;8655;57.106;-2.088;2023-06-22T07:14:38;22.50;59.00
17080;DHT22;8655;57.106;-2.088;2023-06-22T07:17:04;22.40;58.90
17080;DHT22;8655;57.106;-2.088;2023-06-22T07:19:29;22.50;59.00
17080;DHT22;8655;57.106;-2.088;2023-06-22T07:21:57;22.40;58.90
17080;DHT22;8655;57.106;-2.088;2023-06-22T07:24:23;22.50;59.00
17080;DHT22;8655;57.106;-2.088;2023-06-22T07:26:50;22.40;58.90
17080;DHT22;8655;57.106;-2.088;2023-06-22T07:29:22;22.40;58.90
17080;DHT22;8655;57.106;-2.088;2023-06-22T07:31:49;22.40;58.90
17080;DHT22;8655;57.106;-2.088;2023-06-22T07:34:16;22.40;58.90
17080;DHT22;8655;57.106;-2.088;2023-06-22T07:36:43;22.40;58.90
17080;DHT22;8655;57.106;-2.088;2023-06-22T07:39:09;22.40;58.90
17080;DHT22;8655;57.106;-2.088;2023-06-22T07:41:35;22.40;58.90
17080;DHT22;8655;57.106;-2.088;2023-06-22T07:44:02;22.40;58.90
17080;DHT22;8655;57.106;-2.088;2023-06-22T07:46:29;22.40;58.90
17080;DHT22;8655;57.106;-2.088;2023-06-22T07:48:56;22.40;58.90
17080;DHT22;8655;57.106;-2.088;2023-06-22T07:51:22;22.40;58.90
17080;DHT22;8655;57.106;-2.088;2023-06-22T07:53:47;22.40;58.90
17080;DHT22;8655;57.106;-2.088;2023-06-22T07:56:13;22.40;58.90
17080;DHT22;8655;57.106;-2.088;2023-06-22T07:58:44;22.40;59.50
17080;DHT22;8655;57.106;-2.088;2023-06-22T08:01:10;22.40;58.90
17080;DHT22;8655;57.106;-2.088;2023-06-22T08:03:36;22.40;58.90
17080;DHT22;8655;57.106;-2.088;2023-06-22T08:06:02;22.40;58.90
17080;DHT22;8655;57.106;-2.088;2023-06-22T08:08:28;22.40;59.50
17080;DHT22;8655;57.106;-2.088;2023-06-22T08:10:54;22.40;58.90
17080;DHT22;8655;57.106;-2.088;2023-06-22T08:13:19;22.40;58.90
17080;DHT22;8655;57.106;-2.088;2023-06-22T08:15:45;22.40;58.90
17080;DHT22;8655;57.106;-2.088;2023-06-22T08:18:11;22.40;58.90
17080;DHT22;8655;57.106;-2.088;2023-06-22T08:20:36;22.40;58.90
17080;DHT22;8655;57.106;-2.088;2023-06-22T08:23:02;22.40;58.90
17080;DHT22;8655;57.106;-2.088;2023-06-22T08:25:32;22.40;58.90
17080;DHT22;8655;57.106;-2.088;2023-06-22T08:27:58;22.40;58.90
17080;DHT22;8655;57.106;-2.088;2023-06-22T08:30:24;22.40;58.90
17080;DHT22;8655;57.106;-2.088;2023-06-22T08:32:49;22.40;58.90
17080;DHT22;8655;57.106;-2.088;2023-06-22T08:35:15;22.40;58.90
17080;DHT22;8655;57.106;-2.088;2023-06-22T08:37:41;22.40;58.90
17080;DHT22;8655;57.106;-2.088;2023-06-22T08:40:08;22.40;58.90
17080;DHT22;8655;57.106;-2.088;2023-06-22T08:42:39;22.40;58.90
17080;DHT22;8655;57.106;-2.088;2023-06-22T08:45:06;22.40;58.90
17080;DHT22;8655;57.106;-2.088;2023-06-22T08:47:32;22.40;58.90
17080;DHT22;8655;57.106;-2.088;2023-06-22T08:49:58;22.40;58.90
17080;DHT22;8655;57.106;-2.088;2023-06-22T08:52:24;22.40;58.90
17080;DHT22;8655;57.106;-2.088;2023-06-22T08:54:49;22.40;58.90
17080;DHT22;8655;57.106;-2.088;2023-06-22T08:57:16;22.40;58.90
17080;DHT22;8655;57.106;-2.088;2023-06-22T08:59:42;22.40;58.90
17080;DHT22;8655;57.106;-2.088;2023-06-22T09:02:08;22.40;58.90
17080;DHT22;8655;57.106;-2.088;2023-06-22T09:04:33;22.40;58.80
17080;DHT22;8655;57.106;-2.088;2023-06-22T09:07:00;22.40;58.80
17080;DHT22;8655;57.106;-2.088;2023-06-22T09:09:26;22.40;58.90
17080;DHT22;8655;57.106;-2.088;2023-06-22T09:11:52;22.40;59.40
17080;DHT22;8655;57.106;-2.088;2023-06-22T09:14:17;22.40;58.90
17080;DHT22;8655;57.106;-2.088;2023-06-22T09:16:43;22.40;58.80
17080;DHT22;8655;57.106;-2.088;2023-06-22T09:19:09;22.40;58.90
17080;DHT22;8655;57.106;-2.088;2023-06-22T09:21:34;22.40;58.90
17080;DHT22;8655;57.106;-2.088;2023-06-22T09:24:00;22.40;58.80
17080;DHT22;8655;57.106;-2.088;2023-06-22T09:26:26;22.40;58.80
17080;DHT22;8655;57.106;-2.088;2023-06-22T09:28:51;22.40;58.80
17080;DHT22;8655;57.106;-2.088;2023-06-22T09:31:17;22.50;58.90
17080;DHT22;8655;57.106;-2.088;2023-06-22T09:33:43;22.40;58.80
17080;DHT22;8655;57.106;-2.088;2023-06-22T09:36:09;22.40;58.80
17080;DHT22;8655;57.106;-2.088;2023-06-22T09:38:36;22.50;58.90
17080;DHT22;8655;57.106;-2.088;2023-06-22T09:41:02;22.40;58.80
17080;DHT22;8655;57.106;-2.088;2023-06-22T09:43:27;22.40;58.90
17080;DHT22;8655;57.106;-2.088;2023-06-22T09:45:53;22.40;58.80
17080;DHT22;8655;57.106;-2.088;2023-06-22T09:48:19;22.50;58.90
17080;DHT22;8655;57.106;-2.088;2023-06-22T09:50:45;22.50;58.90
17080;DHT22;8655;57.106;-2.088;2023-06-22T09:53:10;22.50;58.90
17080;DHT22;8655;57.106;-2.088;2023-06-22T09:55:36;22.50;58.90
17080;DHT22;8655;57.106;-2.088;2023-06-22T09:58:02;22.50;58.90
17080;DHT22;8655;57.106;-2.088;2023-06-22T10:00:27;22.50;58.90
17080;DHT22;8655;57.106;-2.088;2023-06-22T10:02:53;22.50;58.90
17080;DHT22;8655;57.106;-2.088;2023-06-22T10:05:19;22.50;58.90
17080;DHT22;8655;57.106;-2.088;2023-06-22T10:07:44;22.50;58.90
17080;DHT22;8655;57.106;-2.088;2023-06-22T10:10:11;22.50;58.90
17080;DHT22;8655;57.106;-2.088;2023-06-22T10:12:42;22.50;58.90
17080;DHT22;8655;57.106;-2.088;2023-06-22T10:15:08;22.50;58.90
17080;DHT22;8655;57.106;-2.088;2023-06-22T10:17:34;22.50;59.50
17080;DHT22;8655;57.106;-2.088;2023-06-22T10:20:00;22.50;58.90
17080;DHT22;8655;57.106;-2.088;2023-06-22T10:22:31;22.50;58.90
17080;DHT22;8655;57.106;-2.088;2023-06-22T10:24:57;22.50;58.90
17080;DHT22;8655;57.106;-2.088;2023-06-22T10:27:22;22.50;58.90
17080;DHT22;8655;57.106;-2.088;2023-06-22T10:29:48;22.50;58.90
17080;DHT22;8655;57.106;-2.088;2023-06-22T10:32:14;22.50;58.90
17080;DHT22;8655;57.106;-2.088;2023-06-22T10:34:39;22.50;58.90
17080;DHT22;8655;57.106;-2.088;2023-06-22T10:37:05;22.50;58.80
17080;DHT22;8655;57.106;-2.088;2023-06-22T10:39:31;22.50;58.90
17080;DHT22;8655;57.106;-2.088;2023-06-22T10:41:56;22.50;59.40
17080;DHT22;8655;57.106;-2.088;2023-06-22T10:44:22;22.50;58.80
17080;DHT22;8655;57.106;-2.088;2023-06-22T10:46:48;22.50;58.80
17080;DHT22;8655;57.106;-2.088;2023-06-22T10:49:13;22.50;58.80
17080;DHT22;8655;57.106;-2.088;2023-06-22T10:51:39;22.60;58.90
17080;DHT22;8655;57.106;-2.088;2023-06-22T10:54:05;22.60;58.90
17080;DHT22;8655;57.106;-2.088;2023-06-22T10:56:30;22.60;58.90
17080;DHT22;8655;57.106;-2.088;2023-06-22T10:58:58;22.60;58.90
17080;DHT22;8655;57.106;-2.088;2023-06-22T11:01:25;22.60;58.90
17080;DHT22;8655;57.106;-2.088;2023-06-22T11:03:51;22.60;58.90
17080;DHT22;8655;57.106;-2.088;2023-06-22T11:06:16;22.60;58.90
17080;DHT22;8655;57.106;-2.088;2023-06-22T11:08:44;22.60;58.90
17080;DHT22;8655;57.106;-2.088;2023-06-22T11:11:10;22.60;58.90
17080;DHT22;8655;57.106;-2.088;2023-06-22T11:13:36;22.60;58.90
17080;DHT22;8655;57.106;-2.088;2023-06-22T11:16:02;22.60;58.90
17080;DHT22;8655;57.106;-2.088;2023-06-22T11:18:27;22.60;58.90
17080;DHT22;8655;57.106;-2.088;2023-06-22T11:20:53;22.60;58.90
17080;DHT22;8655;57.106;-2.088;2023-06-22T11:23:19;22.60;58.90
17080;DHT22;8655;57.106;-2.088;2023-06-22T11:25:44;22.60;58.90
17080;DHT22;8655;57.106;-2.088;2023-06-22T11:28:11;22.60;58.90
17080;DHT22;8655;57.106;-2.088;2023-06-22T11:30:37;22.60;58.90
17080;DHT22;8655;57.106;-2.088;2023-06-22T11:33:03;22.60;58.90
17080;DHT22;8655;57.106;-2.088;2023-06-22T11:35:28;22.60;58.90
17080;DHT22;8655;57.106;-2.088;2023-06-22T11:37:54;22.60;58.90
17080;DHT22;8655;57.106;-2.088;2023-06-22T11:40:21;22.60;58.90
17080;DHT22;8655;57.106;-2.088;2023-06-22T11:42:48;22.60;58.90
17080;DHT22;8655;57.106;-2.088;2023-06-22T11:45:14;22.60;58.80
17080;DHT22;8655;57.106;-2.088;2023-06-22T11:47:39;22.60;58.80
17080;DHT22;8655;57.106;-2.088;2023-06-22T11:50:06;22.60;58.80
17080;DHT22;8655;57.106;-2.088;2023-06-22T11:52:33;22.60;58.80
17080;DHT22;8655;57.106;-2.088;2023-06-22T11:54:59;22.60;59.40
17080;DHT22;8655;57.106;-2.088;2023-06-22T11:57:25;22.60;58.80
17080;DHT22;8655;57.106;-2.088;2023-06-22T11:59:50;22.60;58.70
17080;DHT22;8655;57.106;-2.088;2023-06-22T12:02:16;22.60;58.80
17080;DHT22;8655;57.106;-2.088;2023-06-22T12:04:42;22.70;58.80
17080;DHT22;8655;57.106;-2.088;2023-06-22T12:07:07;22.70;58.80
17080;DHT22;8655;57.106;-2.088;2023-06-22T12:09:33;22.70;58.80
17080;DHT22;8655;57.106;-2.088;2023-06-22T12:11:59;22.70;58.80
17080;DHT22;8655;57.106;-2.088;2023-06-22T12:14:24;22.70;58.80
17080;DHT22;8655;57.106;-2.088;2023-06-22T12:16:50;22.70;58.80
17080;DHT22;8655;57.106;-2.088;2023-06-22T12:19:15;22.70;58.80
17080;DHT22;8655;57.106;-2.088;2023-06-22T12:21:41;22.70;58.80
17080;DHT22;8655;57.106;-2.088;2023-06-22T12:24:11;22.70;58.80
17080;DHT22;8655;57.106;-2.088;2023-06-22T12:26:36;22.70;58.80
17080;DHT22;8655;57.106;-2.088;2023-06-22T12:29:02;22.70;58.80
17080;DHT22;8655;57.106;-2.088;2023-06-22T12:31:28;22.70;58.80
17080;DHT22;8655;57.106;-2.088;2023-06-22T12:33:53;22.70;58.80
17080;DHT22;8655;57.106;-2.088;2023-06-22T12:36:19;22.70;58.80
17080;DHT22;8655;57.106;-2.088;2023-06-22T12:38:44;22.70;58.80
17080;DHT22;8655;57.106;-2.088;2023-06-22T12:41:10;22.70;58.70
17080;DHT22;8655;57.106;-2.088;2023-06-22T12:43:36;22.70;58.70
17080;DHT22;8655;57.106;-2.088;2023-06-22T12:46:01;22.70;58.70
17080;DHT22;8655;57.106;-2.088;2023-06-22T12:48:27;22.70;58.70
17080;DHT22;8655;57.106;-2.088;2023-06-22T12:50:53;22.70;58.70
17080;DHT22;8655;57.106;-2.088;2023-06-22T12:53:19;22.70;58.70
17080;DHT22;8655;57.106;-2.088;2023-06-22T12:55:44;22.70;58.70
17080;DHT22;8655;57.106;-2.088;2023-06-22T12:58:10;22.80;58.80
17080;DHT22;8655;57.106;-2.088;2023-06-22T13:00:36;22.70;58.70
17080;DHT22;8655;57.106;-2.088;2023-06-22T13:03:01;22.80;58.70
17080;DHT22;8655;57.106;-2.088;2023-06-22T13:05:27;22.80;58.70
17080;DHT22;8655;57.106;-2.088;2023-06-22T13:07:53;22.80;58.70
17080;DHT22;8655;57.106;-2.088;2023-06-22T13:10:18;22.80;58.70
17080;DHT22;8655;57.106;-2.088;2023-06-22T13:12:44;22.80;58.70
17080;DHT22;8655;57.106;-2.088;2023-06-22T13:15:09;22.80;58.70
17080;DHT22;8655;57.106;-2.088;2023-06-22T13:17:35;22.80;58.70
17080;DHT22;8655;57.106;-2.088;2023-06-22T13:20:01;22.80;58.70
17080;DHT22;8655;57.106;-2.088;2023-06-22T13:22:34;22.80;58.70
17080;DHT22;8655;57.106;-2.088;2023-06-22T13:25:06;22.80;58.60
17080;DHT22;8655;57.106;-2.088;2023-06-22T13:27:32;22.80;58.60
17080;DHT22;8655;57.106;-2.088;2023-06-22T13:29:58;22.80;58.60
17080;DHT22;8655;57.106;-2.088;2023-06-22T13:32:23;22.80;58.60
17080;DHT22;8655;57.106;-2.088;2023-06-22T13:34:51;22.80;58.60
17080;DHT22;8655;57.106;-2.088;2023-06-22T13:37:17;22.80;58.60
17080;DHT22;8655;57.106;-2.088;2023-06-22T13:39:42;22.90;58.70
17080;DHT22;8655;57.106;-2.088;2023-06-22T13:42:08;22.90;58.60
17080;DHT22;8655;57.106;-2.088;2023-06-22T13:44:34;22.90;58.70
17080;DHT22;8655;57.106;-2.088;2023-06-22T13:47:00;22.90;58.70
17080;DHT22;8655;57.106;-2.088;2023-06-22T13:49:26;22.90;58.60
17080;DHT22;8655;57.106;-2.088;2023-06-22T13:51:51;22.90;58.60
17080;DHT22;8655;57.106;-2.088;2023-06-22T13:54:17;22.90;58.60
17080;DHT22;8655;57.106;-2.088;2023-06-22T13:56:43;22.90;58.60
17080;DHT22;8655;57.106;-2.088;2023-06-22T13:59:08;22.90;58.60
17080;DHT22;8655;57.106;-2.088;2023-06-22T14:01:37;22.90;58.60
17080;DHT22;8655;57.106;-2.088;2023-06-22T14:04:05;22.90;58.60
17080;DHT22;8655;57.106;-2.088;2023-06-22T14:06:31;22.90;58.60
17080;DHT22;8655;57.106;-2.088;2023-06-22T14:08:56;22.90;58.60
17080;DHT22;8655;57.106;-2.088;2023-06-22T14:11:22;22.90;58.60
17080;DHT22;8655;57.106;-2.088;2023-06-22T14:13:48;22.90;58.60
17080;DHT22;8655;57.106;-2.088;2023-06-22T14:16:13;22.90;58.60
17080;DHT22;8655;57.106;-2.088;2023-06-22T14:18:39;22.90;58.60
17080;DHT22;8655;57.106;-2.088;2023-06-22T14:21:05;23.00;58.60
17080;DHT22;8655;57.106;-2.088;2023-06-22T14:23:30;23.00;58.70
17080;DHT22;8655;57.106;-2.088;2023-06-22T14:25:56;23.00;58.60
17080;DHT22;8655;57.106;-2.088;2023-06-22T14:28:22;23.00;58.60
17080;DHT22;8655;57.106;-2.088;2023-06-22T14:30:47;23.00;58.60
17080;DHT22;8655;57.106;-2.088;2023-06-22T14:33:13;22.90;58.50
17080;DHT22;8655;57.106;-2.088;2023-06-22T14:35:39;23.00;58.60
17080;DHT22;8655;57.106;-2.088;2023-06-22T14:38:04;23.00;58.60
17080;DHT22;8655;57.106;-2.088;2023-06-22T14:40:30;23.00;58.60
17080;DHT22;8655;57.106;-2.088;2023-06-22T14:42:56;23.00;58.50
17080;DHT22;8655;57.106;-2.088;2023-06-22T14:45:22;23.00;58.50
17080;DHT22;8655;57.106;-2.088;2023-06-22T14:47:48;23.00;58.50
17080;DHT22;8655;57.106;-2.088;2023-06-22T14:50:14;23.00;58.50
17080;DHT22;8655;57.106;-2.088;2023-06-22T14:52:40;23.00;58.50
17080;DHT22;8655;57.106;-2.088;2023-06-22T14:55:06;23.00;58.50
17080;DHT22;8655;57.106;-2.088;2023-06-22T14:57:31;23.00;58.50
17080;DHT22;8655;57.106;-2.088;2023-06-22T14:59:57;23.00;58.50
17080;DHT22;8655;57.106;-2.088;2023-06-22T15:02:23;23.00;58.50
17080;DHT22;8655;57.106;-2.088;2023-06-22T15:04:49;23.00;58.50
17080;DHT22;8655;57.106;-2.088;2023-06-22T15:07:14;23.10;58.50
17080;DHT22;8655;57.106;-2.088;2023-06-22T15:09:40;23.10;58.50
17080;DHT22;8655;57.106;-2.088;2023-06-22T15:12:08;23.10;58.50
17080;DHT22;8655;57.106;-2.088;2023-06-22T15:14:39;23.10;58.50
17080;DHT22;8655;57.106;-2.088;2023-06-22T15:17:05;23.10;58.50
17080;DHT22;8655;57.106;-2.088;2023-06-22T15:19:31;23.10;58.50
17080;DHT22;8655;57.106;-2.088;2023-06-22T15:21:57;23.10;58.50
17080;DHT22;8655;57.106;-2.088;2023-06-22T15:24:22;23.10;58.50
17080;DHT22;8655;57.106;-2.088;2023-06-22T15:26:48;23.10;58.50
17080;DHT22;8655;57.106;-2.088;2023-06-22T15:29:13;23.10;58.50
17080;DHT22;8655;57.106;-2.088;2023-06-22T15:31:39;23.10;58.50